sensor_id;sensor_type;location;lat;lon;timestamp;pressure;altitude;pressure_sealevel;temperature;humidity
52137;BME280;69622;49.570;10.986;2023-06-10T00:01:45;98113.41;;;17.62;94.60
52137;BME280;69622;49.570;10.986;2023-06-10T00:04:50;98107.00;;;17.49;94.69
52137;BME280;69622;49.570;10.986;2023-06-10T00:07:52;98104.56;;;17.39;95.44
52137;BME280;69622;49.570;10.986;2023-06-10T00:10:56;98109.47;;;17.26;97.79
52137;BME280;69622;49.570;10.986;2023-06-10T00:13:59;98110.44;;;17.17;98.23
52137;BME280;69622;49.570;10.986;2023-06-10T00:17:00;98107.47;;;17.12;97.53
52137;BME280;69622;49.570;10.986;2023-06-10T00:20:02;98110.75;;;17.14;97.04
52137;BME280;69622;49.570;10.986;2023-06-10T00:23:10;98121.75;;;17.17;98.13
52137;BME280;69622;49.570;10.986;2023-06-10T00:26:12;98115.34;;;17.20;96.92
52137;BME280;69622;49.570;10.986;2023-06-10T00:29:14;98117.69;;;17.23;97.17
52137;BME280;69622;49.570;10.986;2023-06-10T00:32:16;98121.13;;;17.23;96.16
52137;BME280;69622;49.570;10.986;2023-06-10T00:35:18;98119.16;;;17.25;95.23
52137;BME280;69622;49.570;10.986;2023-06-10T00:38:19;98119.31;;;17.24;96.47
52137;BME280;69622;49.570;10.986;2023-06-10T00:41:21;98121.28;;;17.22;95.52
52137;BME280;69622;49.570;10.986;2023-06-10T00:44:22;98115.50;;;17.18;94.75
52137;BME280;69622;49.570;10.986;2023-06-10T00:47:25;98120.56;;;17.03;95.45
52137;BME280;69622;49.570;10.986;2023-06-10T00:50:27;98120.09;;;17.00;95.55
52137;BME280;69622;49.570;10.986;2023-06-10T00:53:28;98115.00;;;16.98;94.75
52137;BME280;69622;49.570;10.986;2023-06-10T00:56:31;98117.66;;;17.06;94.36
52137;BME280;69622;49.570;10.986;2023-06-10T00:59:33;98114.50;;;17.03;95.98
52137;BME280;69622;49.570;10.986;2023-06-10T01:02:35;98108.09;;;16.97;96.07
52137;BME280;69622;49.570;10.986;2023-06-10T01:05:40;98107.78;;;16.92;95.37
52137;BME280;69622;49.570;10.986;2023-06-10T01:08:52;98107.44;;;16.95;94.63
52137;BME280;69622;49.570;10.986;2023-06-10T01:12:05;98099.56;;;16.95;94.63
52137;BME280;69622;49.570;10.986;2023-06-10T01:15:11;98102.34;;;16.94;94.42
52137;BME280;69622;49.570;10.986;2023-06-10T01:18:13;98107.78;;;16.92;94.06
52137;BME280;69622;49.570;10.986;2023-06-10T01:21:20;98105.59;;;16.88;95.10
52137;BME280;69622;49.570;10.986;2023-06-10T01:24:27;98105.13;;;16.84;94.85
52137;BME280;69622;49.570;10.986;2023-06-10T01:27:33;98105.44;;;16.73;95.26
52137;BME280;69622;49.570;10.986;2023-06-10T01:30:59;98105.53;;;16.63;95.64
52137;BME280;69622;49.570;10.986;2023-06-10T01:34:10;98104.50;;;16.56;95.67
52137;BME280;69622;49.570;10.986;2023-06-10T01:37:13;98104.97;;;16.52;95.96
52137;BME280;69622;49.570;10.986;2023-06-10T01:40:17;98114.88;;;16.58;96.38
52137;BME280;69622;49.570;10.986;2023-06-10T01:43:20;98109.91;;;16.55;97.00
52137;BME280;69622;49.570;10.986;2023-06-10T01:46:21;98112.03;;;16.51;95.52
52137;BME280;69622;49.570;10.986;2023-06-10T01:49:24;98111.53;;;16.56;96.19
52137;BME280;69622;49.570;10.986;2023-06-10T01:52:27;98116.97;;;16.54;96.45
52137;BME280;69622;49.570;10.986;2023-06-10T01:55:29;98114.16;;;16.47;96.62
52137;BME280;69622;49.570;10.986;2023-06-10T01:58:30;98113.59;;;16.36;96.32
52137;BME280;69622;49.570;10.986;2023-06-10T02:01:32;98118.34;;;16.32;95.97
52137;BME280;69622;49.570;10.986;2023-06-10T02:04:33;98118.03;;;16.35;95.48
52137;BME280;69622;49.570;10.986;2023-06-10T02:07:35;98115.56;;;16.34;96.10
52137;BME280;69622;49.570;10.986;2023-06-10T02:10:36;98115.56;;;16.34;95.83
52137;BME280;69622;49.570;10.986;2023-06-10T02:13:38;98105.06;;;16.34;96.33
52137;BME280;69622;49.570;10.986;2023-06-10T02:16:40;98105.56;;;16.29;96.28
52137;BME280;69622;49.570;10.986;2023-06-10T02:19:41;98103.09;;;16.28;95.05
52137;BME280;69622;49.570;10.986;2023-06-10T02:22:54;98106.53;;;16.28;95.52
52137;BME280;69622;49.570;10.986;2023-06-10T02:25:55;98098.59;;;16.20;95.14
52137;BME280;69622;49.570;10.986;2023-06-10T02:28:57;98103.16;;;16.10;95.70
52137;BME280;69622;49.570;10.986;2023-06-10T02:31:58;98103.50;;;16.15;95.91
52137;BME280;69622;49.570;10.986;2023-06-10T02:35:00;98110.91;;;16.20;97.03
52137;BME280;69622;49.570;10.986;2023-06-10T02:38:01;98116.66;;;16.23;96.96
52137;BME280;69622;49.570;10.986;2023-06-10T02:41:03;98121.00;;;16.06;96.26
52137;BME280;69622;49.570;10.986;2023-06-10T02:44:04;98124.59;;;16.05;95.86
52137;BME280;69622;49.570;10.986;2023-06-10T02:47:06;98128.19;;;16.04;95.93
52137;BME280;69622;49.570;10.986;2023-06-10T02:50:08;98127.44;;;16.12;97.23
52137;BME280;69622;49.570;10.986;2023-06-10T02:53:09;98127.06;;;16.07;96.27
52137;BME280;69622;49.570;10.986;2023-06-10T02:56:11;98129.41;;;16.10;97.25
52137;BME280;69622;49.570;10.986;2023-06-10T02:59:14;98127.38;;;16.04;95.58
52137;BME280;69622;49.570;10.986;2023-06-10T03:02:15;98128.34;;;16.03;96.31
52137;BME280;69622;49.570;10.986;2023-06-10T03:05:17;98132.84;;;16.10;95.63
52137;BME280;69622;49.570;10.986;2023-06-10T03:08:18;98131.31;;;16.08;95.61
52137;BME280;69622;49.570;10.986;2023-06-10T03:11:20;98127.69;;;16.01;95.83
52137;BME280;69622;49.570;10.986;2023-06-10T03:14:21;98121.28;;;15.95;95.81
52137;BME280;69622;49.570;10.986;2023-06-10T03:17:23;98125.16;;;15.91;96.09
52137;BME280;69622;49.570;10.986;2023-06-10T03:20:25;98115.28;;;15.85;96.06
52137;BME280;69622;49.570;10.986;2023-06-10T03:23:26;98125.28;;;15.81;97.74
52137;BME280;69622;49.570;10.986;2023-06-10T03:26:28;98122.66;;;15.81;98.25
52137;BME280;69622;49.570;10.986;2023-06-10T03:29:30;98127.56;;;15.84;96.08
52137;BME280;69622;49.570;10.986;2023-06-10T03:32:31;98121.00;;;15.80;96.83
52137;BME280;69622;49.570;10.986;2023-06-10T03:35:33;98120.09;;;15.72;95.85
52137;BME280;69622;49.570;10.986;2023-06-10T03:38:36;98127.22;;;15.62;96.98
52137;BME280;69622;49.570;10.986;2023-06-10T03:41:38;98126.69;;;15.58;96.66
52137;BME280;69622;49.570;10.986;2023-06-10T03:44:39;98134.19;;;15.53;96.49
52137;BME280;69622;49.570;10.986;2023-06-10T03:47:41;98134.50;;;15.50;96.85
52137;BME280;69622;49.570;10.986;2023-06-10T03:50:44;98129.56;;;15.47;97.31
52137;BME280;69622;49.570;10.986;2023-06-10T03:53:46;98136.88;;;15.43;97.69
52137;BME280;69622;49.570;10.986;2023-06-10T03:56:47;98136.00;;;15.35;97.61
52137;BME280;69622;49.570;10.986;2023-06-10T03:59:49;98133.22;;;15.18;98.07
52137;BME280;69622;49.570;10.986;2023-06-10T04:02:51;98134.78;;;15.11;99.00
52137;BME280;69622;49.570;10.986;2023-06-10T04:05:53;98130.00;;;15.07;99.35
52137;BME280;69622;49.570;10.986;2023-06-10T04:08:55;98136.38;;;15.22;99.39
52137;BME280;69622;49.570;10.986;2023-06-10T04:11:58;98133.28;;;15.26;98.56
52137;BME280;69622;49.570;10.986;2023-06-10T04:14:59;98127.38;;;15.24;98.06
52137;BME280;69622;49.570;10.986;2023-06-10T04:18:01;98120.44;;;15.33;97.60
52137;BME280;69622;49.570;10.986;2023-06-10T04:21:03;98126.34;;;15.35;97.20
52137;BME280;69622;49.570;10.986;2023-06-10T04:24:05;98122.88;;;15.52;97.20
52137;BME280;69622;49.570;10.986;2023-06-10T04:27:06;98123.94;;;15.60;97.39
52137;BME280;69622;49.570;10.986;2023-06-10T04:30:08;98121.16;;;15.43;97.49
52137;BME280;69622;49.570;10.986;2023-06-10T04:33:10;98123.63;;;15.45;98.21
52137;BME280;69622;49.570;10.986;2023-06-10T04:36:11;98122.06;;;15.52;97.81
52137;BME280;69622;49.570;10.986;2023-06-10T04:39:13;98129.78;;;15.53;97.83
52137;BME280;69622;49.570;10.986;2023-06-10T04:42:15;98125.03;;;15.57;97.35
52137;BME280;69622;49.570;10.986;2023-06-10T04:45:16;98124.69;;;15.70;98.58
52137;BME280;69622;49.570;10.986;2023-06-10T04:48:18;98135.53;;;15.75;96.98
52137;BME280;69622;49.570;10.986;2023-06-10T04:51:19;98121.16;;;15.79;95.26
52137;BME280;69622;49.570;10.986;2023-06-10T04:54:21;98125.75;;;15.59;97.20
52137;BME280;69622;49.570;10.986;2023-06-10T04:57:22;98130.66;;;15.80;96.07
52137;BME280;69622;49.570;10.986;2023-06-10T05:00:23;98135.44;;;15.84;96.67
52137;BME280;69622;49.570;10.986;2023-06-10T05:03:26;98134.16;;;15.88;96.29
52137;BME280;69622;49.570;10.986;2023-06-10T05:06:28;98131.19;;;15.83;96.35
52137;BME280;69622;49.570;10.986;2023-06-10T05:09:30;98140.69;;;15.84;97.15
52137;BME280;69622;49.570;10.986;2023-06-10T05:12:31;98146.75;;;15.85;96.62
52137;BME280;69622;49.570;10.986;2023-06-10T05:15:33;98136.56;;;15.82;97.39
52137;BME280;69622;49.570;10.986;2023-06-10T05:18:35;98139.41;;;15.88;97.58
52137;BME280;69622;49.570;10.986;2023-06-10T05:21:36;98152.22;;;15.74;99.45
52137;BME280;69622;49.570;10.986;2023-06-10T05:24:38;98163.91;;;15.62;100.00
52137;BME280;69622;49.570;10.986;2023-06-10T05:27:40;98155.50;;;15.58;100.00
52137;BME280;69622;49.570;10.986;2023-06-10T05:30:43;98152.88;;;15.58;100.00
52137;BME280;69622;49.570;10.986;2023-06-10T05:33:44;98150.44;;;15.74;100.00
52137;BME280;69622;49.570;10.986;2023-06-10T05:36:46;98155.25;;;15.79;100.00
52137;BME280;69622;49.570;10.986;2023-06-10T05:39:47;98157.25;;;15.85;100.00
52137;BME280;69622;49.570;10.986;2023-06-10T05:42:49;98153.31;;;15.89;100.00
52137;BME280;69622;49.570;10.986;2023-06-10T05:45:50;98160.69;;;15.85;100.00
52137;BME280;69622;49.570;10.986;2023-06-10T05:48:52;98154.00;;;15.91;100.00
52137;BME280;69622;49.570;10.986;2023-06-10T05:51:53;98154.31;;;15.88;100.00
52137;BME280;69622;49.570;10.986;2023-06-10T05:54:55;98153.31;;;15.89;100.00
52137;BME280;69622;49.570;10.986;2023-06-10T05:58:00;98150.47;;;16.00;100.00
52137;BME280;69622;49.570;10.986;2023-06-10T06:01:02;98155.06;;;16.06;100.00
52137;BME280;69622;49.570;10.986;2023-06-10T06:04:03;98155.16;;;16.14;100.00
52137;BME280;69622;49.570;10.986;2023-06-10T06:07:05;98155.56;;;16.28;100.00
52137;BME280;69622;49.570;10.986;2023-06-10T06:10:07;98152.47;;;16.40;100.00
52137;BME280;69622;49.570;10.986;2023-06-10T06:13:08;98149.16;;;16.30;100.00
52137;BME280;69622;49.570;10.986;2023-06-10T06:16:10;98145.66;;;16.47;100.00
52137;BME280;69622;49.570;10.986;2023-06-10T06:19:11;98153.25;;;16.59;100.00
52137;BME280;69622;49.570;10.986;2023-06-10T06:22:13;98155.16;;;16.83;100.00
52137;BME280;69622;49.570;10.986;2023-06-10T06:25:14;98158.31;;;16.94;100.00
52137;BME280;69622;49.570;10.986;2023-06-10T06:28:16;98151.09;;;16.96;100.00
52137;BME280;69622;49.570;10.986;2023-06-10T06:31:17;98145.56;;;17.08;100.00
52137;BME280;69622;49.570;10.986;2023-06-10T06:34:19;98147.66;;;17.04;100.00
52137;BME280;69622;49.570;10.986;2023-06-10T06:37:22;98159.88;;;17.29;99.63
52137;BME280;69622;49.570;10.986;2023-06-10T06:40:24;98159.28;;;17.52;99.16
52137;BME280;69622;49.570;10.986;2023-06-10T06:43:26;98158.28;;;17.61;98.33
52137;BME280;69622;49.570;10.986;2023-06-10T06:46:27;98152.34;;;17.59;96.31
52137;BME280;69622;49.570;10.986;2023-06-10T06:49:29;98147.78;;;17.69;98.40
52137;BME280;69622;49.570;10.986;2023-06-10T06:52:31;98155.66;;;17.77;99.50
52137;BME280;69622;49.570;10.986;2023-06-10T06:55:32;98150.88;;;17.81;98.88
52137;BME280;69622;49.570;10.986;2023-06-10T06:58:34;98155.81;;;17.92;97.58
52137;BME280;69622;49.570;10.986;2023-06-10T07:01:35;98155.31;;;18.05;95.93
52137;BME280;69622;49.570;10.986;2023-06-10T07:04:37;98159.56;;;18.22;94.09
52137;BME280;69622;49.570;10.986;2023-06-10T07:07:38;98152.78;;;18.36;93.59
52137;BME280;69622;49.570;10.986;2023-06-10T07:10:40;98153.25;;;18.39;93.31
52137;BME280;69622;49.570;10.986;2023-06-10T07:13:41;98155.66;;;18.57;94.29
52137;BME280;69622;49.570;10.986;2023-06-10T07:16:43;98156.81;;;18.63;91.70
52137;BME280;69622;49.570;10.986;2023-06-10T07:19:46;98161.06;;;18.80;91.30
52137;BME280;69622;49.570;10.986;2023-06-10T07:22:48;98162.69;;;18.81;90.61
52137;BME280;69622;49.570;10.986;2023-06-10T07:25:49;98161.47;;;18.92;93.47
52137;BME280;69622;49.570;10.986;2023-06-10T07:28:51;98164.25;;;18.98;90.68
52137;BME280;69622;49.570;10.986;2023-06-10T07:31:53;98163.19;;;19.15;86.44
52137;BME280;69622;49.570;10.986;2023-06-10T07:34:54;98161.16;;;19.26;85.46
52137;BME280;69622;49.570;10.986;2023-06-10T07:37:56;98152.88;;;19.29;86.28
52137;BME280;69622;49.570;10.986;2023-06-10T07:40:58;98154.22;;;19.48;89.95
52137;BME280;69622;49.570;10.986;2023-06-10T07:43:59;98161.16;;;19.71;88.22
52137;BME280;69622;49.570;10.986;2023-06-10T07:47:01;98160.63;;;19.76;84.08
52137;BME280;69622;49.570;10.986;2023-06-10T07:50:02;98149.81;;;19.86;84.09
52137;BME280;69622;49.570;10.986;2023-06-10T07:53:04;98156.41;;;19.90;83.79
52137;BME280;69622;49.570;10.986;2023-06-10T07:56:05;98159.59;;;20.00;84.66
52137;BME280;69622;49.570;10.986;2023-06-10T07:59:07;98158.78;;;19.99;88.16
52137;BME280;69622;49.570;10.986;2023-06-10T08:02:08;98156.69;;;20.10;85.66
52137;BME280;69622;49.570;10.986;2023-06-10T08:05:10;98156.09;;;20.22;73.96
52137;BME280;69622;49.570;10.986;2023-06-10T08:08:13;98153.19;;;20.47;72.63
52137;BME280;69622;49.570;10.986;2023-06-10T08:11:14;98148.28;;;20.73;74.77
52137;BME280;69622;49.570;10.986;2023-06-10T08:14:16;98146.69;;;20.93;70.11
52137;BME280;69622;49.570;10.986;2023-06-10T08:17:17;98145.19;;;21.06;68.48
52137;BME280;69622;49.570;10.986;2023-06-10T08:20:18;98150.88;;;21.24;65.34
52137;BME280;69622;49.570;10.986;2023-06-10T08:23:20;98151.50;;;21.41;71.03
52137;BME280;69622;49.570;10.986;2023-06-10T08:26:22;98150.53;;;21.70;64.76
52137;BME280;69622;49.570;10.986;2023-06-10T08:29:23;98156.78;;;21.83;61.25
52137;BME280;69622;49.570;10.986;2023-06-10T08:32:25;98146.53;;;22.02;63.37
52137;BME280;69622;49.570;10.986;2023-06-10T08:35:26;98146.53;;;22.02;66.36
52137;BME280;69622;49.570;10.986;2023-06-10T08:38:28;98151.13;;;21.93;65.29
52137;BME280;69622;49.570;10.986;2023-06-10T08:41:30;98148.47;;;21.93;62.49
52137;BME280;69622;49.570;10.986;2023-06-10T08:44:36;98153.44;;;22.03;60.61
52137;BME280;69622;49.570;10.986;2023-06-10T08:47:42;98149.53;;;22.20;64.28
52137;BME280;69622;49.570;10.986;2023-06-10T08:50:46;98142.16;;;22.44;62.33
52137;BME280;69622;49.570;10.986;2023-06-10T08:53:53;98141.56;;;22.55;61.00
52137;BME280;69622;49.570;10.986;2023-06-10T08:56:59;98135.78;;;22.73;57.80
52137;BME280;69622;49.570;10.986;2023-06-10T09:00:01;98136.59;;;22.80;60.37
52137;BME280;69622;49.570;10.986;2023-06-10T09:03:04;98139.06;;;22.81;58.72
52137;BME280;69622;49.570;10.986;2023-06-10T09:06:06;98133.44;;;22.91;59.46
52137;BME280;69622;49.570;10.986;2023-06-10T09:09:08;98129.56;;;22.93;57.60
52137;BME280;69622;49.570;10.986;2023-06-10T09:12:11;98123.84;;;22.90;60.98
52137;BME280;69622;49.570;10.986;2023-06-10T09:15:13;98128.53;;;22.94;59.76
52137;BME280;69622;49.570;10.986;2023-06-10T09:18:15;98133.03;;;22.94;56.79
52137;BME280;69622;49.570;10.986;2023-06-10T09:21:17;98132.22;;;22.93;58.51
52137;BME280;69622;49.570;10.986;2023-06-10T09:24:18;98130.63;;;23.19;57.62
52137;BME280;69622;49.570;10.986;2023-06-10T09:27:20;98130.69;;;23.39;56.41
52137;BME280;69622;49.570;10.986;2023-06-10T09:30:33;98128.44;;;23.36;54.61
52137;BME280;69622;49.570;10.986;2023-06-10T09:33:38;98124.94;;;23.28;54.85
52137;BME280;69622;49.570;10.986;2023-06-10T09:36:44;98123.34;;;23.41;55.63
52137;BME280;69622;49.570;10.986;2023-06-10T09:40:01;98126.03;;;23.80;54.04
52137;BME280;69622;49.570;10.986;2023-06-10T09:43:02;98130.31;;;23.81;54.37
52137;BME280;69622;49.570;10.986;2023-06-10T09:46:04;98130.75;;;23.58;51.98
52137;BME280;69622;49.570;10.986;2023-06-10T09:49:06;98127.44;;;23.56;52.58
52137;BME280;69622;49.570;10.986;2023-06-10T09:52:07;98122.38;;;23.68;53.47
52137;BME280;69622;49.570;10.986;2023-06-10T09:55:09;98125.03;;;23.75;54.45
52137;BME280;69622;49.570;10.986;2023-06-10T09:58:12;98130.94;;;24.03;54.58
52137;BME280;69622;49.570;10.986;2023-06-10T10:01:14;98125.41;;;24.31;52.22
52137;BME280;69622;49.570;10.986;2023-06-10T10:04:23;98123.97;;;24.35;52.67
52137;BME280;69622;49.570;10.986;2023-06-10T10:07:26;98123.94;;;24.42;53.33
52137;BME280;69622;49.570;10.986;2023-06-10T10:10:27;98115.59;;;24.32;51.16
52137;BME280;69622;49.570;10.986;2023-06-10T10:13:32;98111.50;;;24.23;50.68
52137;BME280;69622;49.570;10.986;2023-06-10T10:16:40;98130.34;;;24.01;51.57
52137;BME280;69622;49.570;10.986;2023-06-10T10:19:54;98122.34;;;24.34;52.41
52137;BME280;69622;49.570;10.986;2023-06-10T10:22:57;98128.84;;;24.45;53.65
52137;BME280;69622;49.570;10.986;2023-06-10T10:26:03;98134.34;;;24.43;54.09
52137;BME280;69622;49.570;10.986;2023-06-10T10:29:12;98133.16;;;24.39;51.93
52137;BME280;69622;49.570;10.986;2023-06-10T10:32:16;98126.59;;;24.29;52.13
52137;BME280;69622;49.570;10.986;2023-06-10T10:35:21;98131.31;;;24.27;56.42
52137;BME280;69622;49.570;10.986;2023-06-10T10:38:25;98128.47;;;24.22;53.38
52137;BME280;69622;49.570;10.986;2023-06-10T10:41:28;98127.66;;;24.08;50.71
52137;BME280;69622;49.570;10.986;2023-06-10T10:44:31;98121.53;;;24.07;52.85
52137;BME280;69622;49.570;10.986;2023-06-10T10:47:34;98124.00;;;24.15;54.55
52137;BME280;69622;49.570;10.986;2023-06-10T10:50:37;98125.81;;;24.22;54.78
52137;BME280;69622;49.570;10.986;2023-06-10T10:53:39;98125.59;;;24.30;52.63
52137;BME280;69622;49.570;10.986;2023-06-10T10:57:09;98120.91;;;24.32;53.64
52137;BME280;69622;49.570;10.986;2023-06-10T11:00:27;98112.25;;;24.56;53.30
52137;BME280;69622;49.570;10.986;2023-06-10T11:03:29;98118.97;;;24.59;52.12
52137;BME280;69622;49.570;10.986;2023-06-10T11:06:34;98134.53;;;24.55;49.74
52137;BME280;69622;49.570;10.986;2023-06-10T11:09:36;98129.47;;;24.47;50.51
52137;BME280;69622;49.570;10.986;2023-06-10T11:15:49;98128.47;;;24.08;50.86
52137;BME280;69622;49.570;10.986;2023-06-10T11:18:53;98129.28;;;24.35;50.48
52137;BME280;69622;49.570;10.986;2023-06-10T11:22:06;98127.97;;;24.64;50.44
52137;BME280;69622;49.570;10.986;2023-06-10T11:25:13;98132.94;;;24.47;51.33
52137;BME280;69622;49.570;10.986;2023-06-10T11:28:19;98130.97;;;24.74;51.46
52137;BME280;69622;49.570;10.986;2023-06-10T11:31:30;98126.66;;;24.87;51.51
52137;BME280;69622;49.570;10.986;2023-06-10T11:34:32;98130.50;;;24.97;54.51
52137;BME280;69622;49.570;10.986;2023-06-10T11:37:34;98120.75;;;25.23;50.52
52137;BME280;69622;49.570;10.986;2023-06-10T11:40:37;98118.91;;;25.23;51.26
52137;BME280;69622;49.570;10.986;2023-06-10T11:43:44;98108.75;;;25.14;50.71
52137;BME280;69622;49.570;10.986;2023-06-10T11:46:48;98118.34;;;25.15;54.08
52137;BME280;69622;49.570;10.986;2023-06-10T11:49:56;98114.75;;;25.34;50.12
52137;BME280;69622;49.570;10.986;2023-06-10T11:52:58;98120.97;;;25.53;49.10
52137;BME280;69622;49.570;10.986;2023-06-10T11:56:00;98115.09;;;25.44;48.73
52137;BME280;69622;49.570;10.986;2023-06-10T11:59:06;98107.72;;;25.08;51.33
52137;BME280;69622;49.570;10.986;2023-06-10T12:02:17;98108.38;;;25.42;51.22
52137;BME280;69622;49.570;10.986;2023-06-10T12:05:20;98111.72;;;25.30;49.36
52137;BME280;69622;49.570;10.986;2023-06-10T12:08:22;98117.31;;;25.47;48.51
52137;BME280;69622;49.570;10.986;2023-06-10T12:11:24;98114.50;;;25.74;50.58
52137;BME280;69622;49.570;10.986;2023-06-10T12:15:06;98106.38;;;25.62;49.25
52137;BME280;69622;49.570;10.986;2023-06-10T12:18:07;98106.63;;;25.54;48.67
52137;BME280;69622;49.570;10.986;2023-06-10T12:21:24;98108.84;;;25.32;49.08
52137;BME280;69622;49.570;10.986;2023-06-10T12:24:25;98110.75;;;25.18;50.63
52137;BME280;69622;49.570;10.986;2023-06-10T12:27:30;98100.97;;;25.12;49.98
52137;BME280;69622;49.570;10.986;2023-06-10T12:30:32;98108.06;;;25.25;50.54
52137;BME280;69622;49.570;10.986;2023-06-10T12:33:34;98110.91;;;25.55;48.15
52137;BME280;69622;49.570;10.986;2023-06-10T12:36:35;98106.84;;;26.02;48.61
52137;BME280;69622;49.570;10.986;2023-06-10T12:39:37;98105.31;;;26.13;46.20
52137;BME280;69622;49.570;10.986;2023-06-10T12:42:39;98102.72;;;25.88;45.41
52137;BME280;69622;49.570;10.986;2023-06-10T12:45:41;98096.75;;;25.86;46.32
52137;BME280;69622;49.570;10.986;2023-06-10T12:48:50;98095.38;;;26.02;44.59
52137;BME280;69622;49.570;10.986;2023-06-10T12:51:56;98081.13;;;26.51;44.09
52137;BME280;69622;49.570;10.986;2023-06-10T12:54:57;98079.66;;;26.73;43.66
52137;BME280;69622;49.570;10.986;2023-06-10T12:58:00;98079.59;;;26.92;43.46
52137;BME280;69622;49.570;10.986;2023-06-10T13:01:02;98077.06;;;27.15;43.16
52137;BME280;69622;49.570;10.986;2023-06-10T13:04:05;98071.06;;;27.31;43.35
52137;BME280;69622;49.570;10.986;2023-06-10T13:07:08;98069.88;;;27.15;41.72
52137;BME280;69622;49.570;10.986;2023-06-10T13:10:13;98075.28;;;27.51;41.90
52137;BME280;69622;49.570;10.986;2023-06-10T13:13:15;98068.25;;;27.68;41.91
52137;BME280;69622;49.570;10.986;2023-06-10T13:16:16;98064.63;;;27.62;41.46
52137;BME280;69622;49.570;10.986;2023-06-10T13:19:18;98061.94;;;27.09;42.65
52137;BME280;69622;49.570;10.986;2023-06-10T13:22:19;98064.41;;;26.92;44.27
52137;BME280;69622;49.570;10.986;2023-06-10T13:25:21;98064.97;;;26.64;43.62
52137;BME280;69622;49.570;10.986;2023-06-10T13:28:23;98065.94;;;26.15;45.79
52137;BME280;69622;49.570;10.986;2023-06-10T13:31:24;98057.50;;;26.00;46.24
52137;BME280;69622;49.570;10.986;2023-06-10T13:34:26;98060.84;;;26.13;48.06
52137;BME280;69622;49.570;10.986;2023-06-10T13:37:27;98056.72;;;26.54;45.71
52137;BME280;69622;49.570;10.986;2023-06-10T13:40:29;98060.91;;;26.62;43.66
52137;BME280;69622;49.570;10.986;2023-06-10T13:43:31;98052.16;;;26.73;44.21
52137;BME280;69622;49.570;10.986;2023-06-10T13:46:32;98057.88;;;27.06;43.07
52137;BME280;69622;49.570;10.986;2023-06-10T13:49:34;98056.53;;;27.15;43.80
52137;BME280;69622;49.570;10.986;2023-06-10T13:52:35;98052.84;;;27.40;42.72
52137;BME280;69622;49.570;10.986;2023-06-10T13:55:37;98050.53;;;27.32;43.01
52137;BME280;69622;49.570;10.986;2023-06-10T13:58:38;98058.59;;;27.13;42.05
52137;BME280;69622;49.570;10.986;2023-06-10T14:01:42;98050.47;;;27.08;41.68
52137;BME280;69622;49.570;10.986;2023-06-10T14:04:44;98058.56;;;27.55;40.89
52137;BME280;69622;49.570;10.986;2023-06-10T14:07:45;98051.16;;;27.69;40.96
52137;BME280;69622;49.570;10.986;2023-06-10T14:10:47;98051.03;;;27.75;41.33
52137;BME280;69622;49.570;10.986;2023-06-10T14:13:49;98057.31;;;27.69;41.93
52137;BME280;69622;49.570;10.986;2023-06-10T14:16:50;98060.53;;;27.60;42.83
52137;BME280;69622;49.570;10.986;2023-06-10T14:19:52;98053.50;;;27.65;41.62
52137;BME280;69622;49.570;10.986;2023-06-10T14:22:55;98056.28;;;27.82;42.60
52137;BME280;69622;49.570;10.986;2023-06-10T14:25:56;98059.50;;;28.08;41.37
52137;BME280;69622;49.570;10.986;2023-06-10T14:28:57;98058.13;;;28.28;41.22
52137;BME280;69622;49.570;10.986;2023-06-10T14:31:59;98056.47;;;28.39;40.26
52137;BME280;69622;49.570;10.986;2023-06-10T14:35:01;98052.53;;;28.70;40.75
52137;BME280;69622;49.570;10.986;2023-06-10T14:38:02;98068.66;;;28.58;40.41
52137;BME280;69622;49.570;10.986;2023-06-10T14:41:08;98057.31;;;28.16;39.65
52137;BME280;69622;49.570;10.986;2023-06-10T14:44:09;98060.81;;;27.93;39.50
52137;BME280;69622;49.570;10.986;2023-06-10T14:47:11;98060.81;;;27.82;41.31
52137;BME280;69622;49.570;10.986;2023-06-10T14:50:13;98060.78;;;28.05;41.50
52137;BME280;69622;49.570;10.986;2023-06-10T14:53:14;98048.50;;;28.27;40.87
52137;BME280;69622;49.570;10.986;2023-06-10T14:56:15;98049.50;;;28.38;40.02
52137;BME280;69622;49.570;10.986;2023-06-10T14:59:17;98049.63;;;28.43;39.50
52137;BME280;69622;49.570;10.986;2023-06-10T15:02:19;98055.50;;;28.57;41.17
52137;BME280;69622;49.570;10.986;2023-06-10T15:05:20;98052.16;;;28.38;40.60
52137;BME280;69622;49.570;10.986;2023-06-10T15:08:21;98050.97;;;28.57;40.62
52137;BME280;69622;49.570;10.986;2023-06-10T15:11:23;98047.13;;;28.82;40.00
52137;BME280;69622;49.570;10.986;2023-06-10T15:14:25;98062.38;;;28.93;39.75
52137;BME280;69622;49.570;10.986;2023-06-10T15:17:27;98060.09;;;28.33;40.60
52137;BME280;69622;49.570;10.986;2023-06-10T15:20:28;98064.03;;;28.07;41.27
52137;BME280;69622;49.570;10.986;2023-06-10T15:23:30;98066.56;;;27.55;46.59
52137;BME280;69622;49.570;10.986;2023-06-10T15:26:31;98071.03;;;26.90;56.21
52137;BME280;69622;49.570;10.986;2023-06-10T15:29:33;98061.84;;;26.85;58.92
52137;BME280;69622;49.570;10.986;2023-06-10T15:32:34;98063.97;;;26.95;60.15
52137;BME280;69622;49.570;10.986;2023-06-10T15:35:36;98068.00;;;26.86;62.59
52137;BME280;69622;49.570;10.986;2023-06-10T15:38:37;98066.66;;;26.77;62.13
52137;BME280;69622;49.570;10.986;2023-06-10T15:41:39;98056.31;;;26.32;65.28
52137;BME280;69622;49.570;10.986;2023-06-10T15:44:40;98060.13;;;26.43;65.89
52137;BME280;69622;49.570;10.986;2023-06-10T15:47:42;98067.69;;;26.46;65.59
52137;BME280;69622;49.570;10.986;2023-06-10T15:50:43;98066.94;;;26.57;65.69
52137;BME280;69622;49.570;10.986;2023-06-10T15:53:46;98069.72;;;26.25;65.18
52137;BME280;69622;49.570;10.986;2023-06-10T15:56:48;98068.38;;;26.16;68.08
52137;BME280;69622;49.570;10.986;2023-06-10T15:59:49;98064.19;;;26.09;66.53